Thumrait, Oman
Current Conditions -  °F | °C
As of 2:55 AM on Thursday 23 Oct 2014 (Local Time) from KQTH Reporting Station
Clear Clear  
Wind Chill: 71°   Ceiling: Unl
Heat Index: 71°   Visibility: 6mi
Dew Point: 46°   Wind: 3mph
Humidity: 42%   Direction: 180°S
Pressure: 30.06"   Gusts: NA
Location:  17.63°N, 54.02°E
Report Text: KQTH 222255Z AUTO 18003KT 9999 CLR 21/08 A3006 RMK AO2 SLP154 T02140080 $
Loading
Personal Weather Stations






























Interactive Weather Map
Tropical Storm Tracking
New forecast layout! Learn more

10-Day Weather Forecast

Advertisements
Track Severe Weather on mobile